Time;durP1;ratioP1;P1;durP2;ratioP2;P2;SDS_P1;SDS_P2;PMS_P1;PMS_P2;Temp;Humidity;BMP_temperature;BMP_pressure;BME280_temperature;BME280_humidity;BME280_pressure;Samples;Min_cycle;Max_cycle;Signal;HPM_P1;HPM_P2
2022/10/24 00:01:09;;;;;;;6.70;5.77;;;19.30;65.80;;;;;;5100356;28;20991;-87
2022/10/24 00:03:36;;;;;;;7.53;6.03;;;19.10;66.90;;;;;;5090754;28;20479;-87
2022/10/24 00:06:05;;;;;;;11.93;4.83;;;19.10;66.40;;;;;;5096547;27;20445;-87
2022/10/24 00:08:32;;;;;;;9.87;5.10;;;19.10;66.20;;;;;;5112200;27;20473;-87
2022/10/24 00:10:59;;;;;;;6.70;4.50;;;19.10;66.40;;;;;;5114912;27;21033;-87
2022/10/24 00:13:26;;;;;;;8.03;4.17;;;19.10;65.80;;;;;;5113954;27;20446;-87
2022/10/24 00:15:55;;;;;;;7.37;4.00;;;19.20;65.60;;;;;;5104051;27;20470;-87
2022/10/24 00:18:22;;;;;;;10.37;5.10;;;19.20;65.20;;;;;;5096333;28;20460;-86
2022/10/24 00:20:49;;;;;;;7.83;5.00;;;19.10;64.90;;;;;;5087169;27;20442;-87
2022/10/24 00:23:16;;;;;;;8.03;5.07;;;19.00;65.40;;;;;;5114760;27;20463;-87
2022/10/24 00:25:43;;;;;;;12.23;4.50;;;18.80;66.30;;;;;;5094633;27;20474;-87
2022/10/24 00:28:10;;;;;;;8.80;4.10;;;18.70;66.90;;;;;;5114430;27;20538;-87
2022/10/24 00:30:37;;;;;;;4.20;3.70;;;18.20;68.70;;;;;;5095714;27;20462;-87
2022/10/24 00:33:06;;;;;;;7.23;4.37;;;18.10;68.90;;;;;;5095206;27;20451;-87
2022/10/24 00:35:33;;;;;;;6.10;4.73;;;18.10;68.70;;;;;;5115228;27;20465;-88
2022/10/24 00:38:00;;;;;;;5.33;3.57;;;18.30;67.80;;;;;;5113579;27;20544;-88
2022/10/24 00:40:27;;;;;;;7.07;3.47;;;18.30;66.90;;;;;;5079105;27;20465;-87
2022/10/24 00:42:54;;;;;;;6.90;4.00;;;18.30;67.90;;;;;;5095238;27;20543;-86
2022/10/24 00:45:49;;;;;;;10.47;4.13;;;18.40;67.40;;;;;;5095765;27;21235;-88
2022/10/24 00:48:25;;;;;;;4.90;3.90;;;18.50;66.70;;;;;;5052536;27;20461;-87
2022/10/24 00:50:56;;;;;;;6.60;3.83;;;18.60;66.60;;;;;;5116924;27;20553;-87
2022/10/24 00:53:25;;;;;;;4.30;3.90;;;18.60;66.20;;;;;;5112303;27;20468;-87
2022/10/24 00:55:55;;;;;;;14.07;4.00;;;18.70;65.80;;;;;;5077689;27;20466;-87
2022/10/24 00:58:25;;;;;;;27.77;4.97;;;18.80;65.20;;;;;;5114242;27;20437;-87
2022/10/24 01:00:53;;;;;;;10.47;4.40;;;18.80;65.00;;;;;;5113676;27;20959;-87
2022/10/24 01:03:21;;;;;;;12.60;4.50;;;18.80;65.00;;;;;;5112625;27;20438;-87
2022/10/24 01:06:05;;;;;;;5.33;4.43;;;18.80;64.90;;;;;;5078508;27;21048;-87
2022/10/24 01:08:42;;;;;;;21.40;4.20;;;18.70;64.70;;;;;;5091924;27;20465;-87
2022/10/24 01:11:23;;;;;;;10.80;4.73;;;18.80;64.80;;;;;;5093367;27;20473;-88
2022/10/24 01:14:01;;;;;;;35.33;5.53;;;18.70;64.80;;;;;;5111964;27;20805;-87
2022/10/24 01:16:36;;;;;;;37.70;5.90;;;18.70;65.10;;;;;;5098968;27;20438;-87
2022/10/24 01:19:21;;;;;;;19.80;5.23;;;18.60;65.30;;;;;;5112638;27;20438;-87
2022/10/24 01:21:53;;;;;;;18.90;5.00;;;18.60;65.30;;;;;;5095452;27;20443;-87
2022/10/24 01:24:49;;;;;;;75.13;7.50;;;18.50;66.00;;;;;;5112073;27;20994;-87
2022/10/24 01:27:33;;;;;;;23.13;4.63;;;18.10;67.40;;;;;;5114340;27;20443;-87
2022/10/24 01:30:06;;;;;;;9.40;4.27;;;18.00;68.10;;;;;;5094474;27;20486;-87
2022/10/24 01:32:41;;;;;;;15.03;4.53;;;18.20;67.60;;;;;;5112945;27;20482;-87
2022/10/24 01:35:19;;;;;;;30.27;4.93;;;18.30;66.80;;;;;;5078856;27;20478;-86
2022/10/24 01:37:52;;;;;;;48.57;6.57;;;18.30;66.10;;;;;;5111372;27;20524;-87
2022/10/24 01:40:24;;;;;;;61.37;7.50;;;18.30;66.10;;;;;;5113525;27;20436;-86
2022/10/24 01:42:54;;;;;;;36.73;5.20;;;18.20;66.60;;;;;;5096567;27;20958;-88
2022/10/24 01:45:28;;;;;;;57.97;5.40;;;18.10;66.70;;;;;;5093272;27;20503;-87
2022/10/24 01:47:59;;;;;;;61.30;6.00;;;18.10;66.70;;;;;;5112130;27;20450;-87
2022/10/24 01:50:28;;;;;;;69.57;5.60;;;18.00;66.60;;;;;;5092905;27;21364;-88
2022/10/24 01:52:57;;;;;;;6.93;3.40;;;17.40;68.10;;;;;;5111960;27;20477;-88
2022/10/24 01:55:24;;;;;;;3.80;3.20;;;17.10;69.10;;;;;;5104780;27;20466;-87
2022/10/24 01:57:51;;;;;;;6.10;3.80;;;17.30;68.50;;;;;;5092931;27;20534;-87
2022/10/24 02:00:21;;;;;;;5.10;3.40;;;17.40;67.50;;;;;;5120206;27;20443;-87
2022/10/24 02:02:54;;;;;;;4.50;2.97;;;17.60;67.30;;;;;;5110668;27;20455;-87
2022/10/24 02:05:24;;;;;;;6.00;3.03;;;17.80;66.50;;;;;;5113188;27;20470;-88
2022/10/24 02:07:54;;;;;;;2.53;2.33;;;17.90;65.80;;;;;;5109560;27;20450;-87
2022/10/24 02:10:25;;;;;;;5.03;2.80;;;18.00;65.30;;;;;;5112536;27;20466;-88
2022/10/24 02:12:57;;;;;;;3.50;3.00;;;18.10;64.80;;;;;;5112932;27;20450;-88
2022/10/24 02:15:27;;;;;;;7.57;3.37;;;18.10;65.00;;;;;;5110012;27;20470;-86
2022/10/24 02:17:57;;;;;;;46.90;5.03;;;18.10;64.80;;;;;;5110561;27;20473;-87
2022/10/24 02:20:29;;;;;;;38.67;5.70;;;18.10;64.80;;;;;;5109976;27;20853;-86
2022/10/24 02:23:00;;;;;;;34.93;6.23;;;18.00;66.00;;;;;;5112576;27;20814;-87
2022/10/24 02:25:34;;;;;;;24.17;5.10;;;18.00;65.70;;;;;;5112299;27;20493;-87
2022/10/24 02:28:07;;;;;;;27.93;5.87;;;18.00;65.60;;;;;;5110744;27;20454;-87
2022/10/24 02:30:39;;;;;;;13.60;4.30;;;17.60;66.40;;;;;;5112653;27;20901;-87
2022/10/24 02:33:09;;;;;;;3.80;3.20;;;17.40;67.70;;;;;;5111767;27;20476;-87
2022/10/24 02:35:39;;;;;;;4.00;2.80;;;17.60;67.30;;;;;;5096547;27;20464;-87
2022/10/24 02:38:12;;;;;;;7.27;3.07;;;17.70;66.40;;;;;;5110893;27;20484;-86
2022/10/24 02:40:41;;;;;;;29.23;4.80;;;17.60;66.60;;;;;;5119862;27;20557;-87
2022/10/24 02:43:10;;;;;;;32.90;4.30;;;17.70;66.30;;;;;;5113440;27;20450;-87
2022/10/24 02:45:38;;;;;;;5.43;2.90;;;17.80;65.80;;;;;;5112057;27;21013;-86
2022/10/24 02:48:11;;;;;;;14.10;4.10;;;17.80;65.60;;;;;;5111167;27;20443;-87
2022/10/24 02:50:41;;;;;;;83.17;8.07;;;17.80;65.20;;;;;;5083777;28;20470;-87
2022/10/24 02:53:10;;;;;;;7.10;4.17;;;17.80;65.20;;;;;;5108967;27;20454;-86
2022/10/24 02:55:37;;;;;;;16.87;3.83;;;17.80;65.90;;;;;;5113205;27;20888;-87
2022/10/24 02:58:04;;;;;;;12.13;3.07;;;17.70;65.70;;;;;;5103128;27;20452;-86
2022/10/24 03:00:31;;;;;;;44.53;5.17;;;17.70;66.00;;;;;;5069138;27;20814;-87
2022/10/24 03:02:58;;;;;;;29.67;4.87;;;17.70;65.50;;;;;;5100764;28;20541;-87
2022/10/24 03:05:27;;;;;;;34.63;5.17;;;17.50;66.80;;;;;;5092474;27;20469;-86
2022/10/24 03:07:54;;;;;;;23.70;5.13;;;17.40;67.20;;;;;;5110812;27;21428;-87
2022/10/24 03:10:21;;;;;;;8.73;3.10;;;17.40;66.40;;;;;;5096645;27;20924;-86
2022/10/24 03:12:48;;;;;;;2.80;2.60;;;17.40;66.40;;;;;;5090852;27;20441;-86
2022/10/24 03:15:15;;;;;;;4.53;2.70;;;17.30;66.30;;;;;;5101042;27;20482;-87
2022/10/24 03:17:42;;;;;;;5.60;3.03;;;17.40;66.30;;;;;;5111869;27;20529;-87
2022/10/24 03:20:09;;;;;;;4.30;2.47;;;17.50;66.00;;;;;;5093290;27;20442;-88
2022/10/24 03:22:38;;;;;;;5.33;3.03;;;17.60;65.40;;;;;;5111032;27;20449;-87
2022/10/24 03:25:06;;;;;;;3.10;2.80;;;17.70;65.00;;;;;;5110835;27;20648;-87
2022/10/24 03:27:34;;;;;;;11.97;3.77;;;17.80;64.70;;;;;;5090624;28;20989;-87
2022/10/24 03:30:01;;;;;;;85.80;6.70;;;17.80;64.60;;;;;;5102629;27;20445;-87
2022/10/24 03:32:28;;;;;;;3.50;3.20;;;17.80;64.80;;;;;;5091636;28;20542;-87
2022/10/24 03:34:55;;;;;;;5.00;3.63;;;17.70;64.90;;;;;;5109885;28;20466;-87
2022/10/24 03:37:22;;;;;;;6.70;3.57;;;17.70;65.20;;;;;;5104849;28;20877;-87
2022/10/24 03:39:50;;;;;;;5.50;4.00;;;17.80;65.20;;;;;;5091603;28;20439;-87
2022/10/24 03:42:17;;;;;;;7.37;3.80;;;17.80;64.90;;;;;;5112537;28;20449;-87
2022/10/24 03:44:44;;;;;;;22.30;5.07;;;17.80;65.10;;;;;;5074606;28;21282;-87
2022/10/24 03:47:12;;;;;;;14.80;5.00;;;17.70;65.40;;;;;;5110035;28;20449;-87
2022/10/24 03:49:39;;;;;;;6.13;4.37;;;17.50;65.60;;;;;;5109536;28;20986;-87
2022/10/24 03:52:06;;;;;;;5.03;4.53;;;17.60;65.40;;;;;;5093199;27;20498;-88
2022/10/24 03:54:34;;;;;;;4.10;3.80;;;17.70;65.10;;;;;;5095822;28;20469;-87
2022/10/24 03:57:03;;;;;;;6.70;3.33;;;17.70;64.80;;;;;;5110113;28;20934;-87
2022/10/24 03:59:30;;;;;;;5.10;3.43;;;17.60;64.60;;;;;;5108115;28;20435;-87
2022/10/24 04:01:58;;;;;;;4.63;4.17;;;17.60;64.70;;;;;;5109881;28;20451;-86
2022/10/24 04:04:25;;;;;;;6.37;3.73;;;17.50;65.20;;;;;;5084179;28;20535;-87
2022/10/24 04:06:52;;;;;;;7.93;4.33;;;17.60;65.10;;;;;;5109294;28;20474;-88
2022/10/24 04:09:20;;;;;;;7.20;4.30;;;17.60;64.50;;;;;;5076334;28;20808;-88
2022/10/24 04:11:48;;;;;;;5.20;4.20;;;17.50;64.30;;;;;;5092871;28;21001;-87
2022/10/24 04:14:16;;;;;;;4.87;3.77;;;17.50;64.20;;;;;;5093014;28;20466;-87
2022/10/24 04:16:43;;;;;;;11.07;4.07;;;17.50;64.60;;;;;;5109553;28;20552;-87
2022/10/24 04:19:10;;;;;;;4.10;3.00;;;17.50;65.00;;;;;;5109724;28;20957;-87
2022/10/24 04:21:37;;;;;;;4.57;3.80;;;17.60;64.70;;;;;;5092886;28;20457;-88
2022/10/24 04:24:05;;;;;;;6.50;3.97;;;17.60;64.20;;;;;;5089515;28;20470;-88
2022/10/24 04:26:32;;;;;;;9.77;5.97;;;17.60;63.70;;;;;;5109464;28;20492;-88
2022/10/24 04:28:59;;;;;;;19.13;11.53;;;17.60;63.50;;;;;;5090137;28;20443;-88
2022/10/24 04:31:27;;;;;;;21.93;13.90;;;17.50;63.20;;;;;;5090830;28;20462;-87
2022/10/24 04:33:54;;;;;;;20.10;12.97;;;17.40;63.90;;;;;;5093913;28;20457;-86
2022/10/24 04:36:21;;;;;;;29.40;15.73;;;17.40;64.20;;;;;;5092743;28;20453;-87
2022/10/24 04:38:48;;;;;;;24.63;13.53;;;17.40;64.10;;;;;;5107644;28;20832;-87
2022/10/24 04:41:15;;;;;;;20.57;11.90;;;17.20;64.90;;;;;;5093220;28;20448;-87
2022/10/24 04:43:42;;;;;;;15.33;10.00;;;17.20;65.30;;;;;;5113778;28;20907;-88
2022/10/24 04:46:09;;;;;;;17.30;9.33;;;17.20;65.30;;;;;;5104348;27;20470;-87
2022/10/24 04:48:37;;;;;;;18.20;10.50;;;17.20;65.50;;;;;;5105968;27;20449;-88
2022/10/24 04:51:05;;;;;;;23.53;8.50;;;17.20;65.70;;;;;;5107409;28;20851;-85
2022/10/24 04:53:32;;;;;;;63.57;8.67;;;17.30;65.30;;;;;;5108506;27;20549;-89
2022/10/24 04:55:59;;;;;;;17.63;7.97;;;17.30;65.10;;;;;;5091840;27;20896;-87
2022/10/24 04:58:26;;;;;;;10.03;6.43;;;16.70;67.40;;;;;;5079221;27;20481;-87
2022/10/24 05:00:53;;;;;;;12.77;8.03;;;16.80;67.80;;;;;;5052122;27;20452;-87
2022/10/24 05:03:22;;;;;;;151.20;80.93;;;16.80;67.90;;;;;;5114320;27;20525;-87
2022/10/24 05:05:50;;;;;;;245.27;128.70;;;16.70;67.80;;;;;;5112328;27;20976;-89
2022/10/24 05:08:18;;;;;;;21.00;10.90;;;16.70;68.20;;;;;;5079981;27;20533;-88
2022/10/24 05:10:45;;;;;;;12.93;7.50;;;16.90;67.80;;;;;;5091971;27;20466;-87
2022/10/24 05:13:12;;;;;;;29.67;10.13;;;16.80;68.20;;;;;;5111912;27;20971;-88
2022/10/24 05:15:39;;;;;;;14.30;8.33;;;17.00;67.70;;;;;;5083579;27;20472;-88
2022/10/24 05:18:06;;;;;;;11.03;4.87;;;16.80;67.80;;;;;;5112432;27;20541;-87
2022/10/24 05:20:33;;;;;;;7.77;5.60;;;16.40;69.10;;;;;;5092950;27;20443;-87
2022/10/24 05:23:01;;;;;;;6.30;4.40;;;16.00;71.20;;;;;;5108455;27;20456;-88
2022/10/24 05:25:28;;;;;;;5.30;3.77;;;16.00;71.40;;;;;;5110725;27;20581;-87
2022/10/24 05:27:55;;;;;;;12.33;4.80;;;15.80;72.80;;;;;;5111532;27;20983;-88
2022/10/24 05:30:23;;;;;;;5.83;4.53;;;16.10;72.00;;;;;;5095737;27;20450;-87
2022/10/24 05:32:50;;;;;;;3.50;3.20;;;16.30;71.40;;;;;;5111247;27;20474;-86
2022/10/24 05:35:17;;;;;;;12.87;5.40;;;16.50;71.40;;;;;;5090326;27;20471;-86
2022/10/24 05:37:44;;;;;;;5.60;5.10;;;16.60;70.80;;;;;;5092933;27;20570;-86
2022/10/24 05:40:13;;;;;;;8.00;5.47;;;16.60;70.80;;;;;;5111170;27;20445;-87
2022/10/24 05:42:40;;;;;;;4.10;3.70;;;17.00;69.90;;;;;;5108948;27;20465;-87
2022/10/24 05:45:09;;;;;;;4.20;3.20;;;17.20;68.80;;;;;;5109172;27;20477;-88
2022/10/24 05:47:37;;;;;;;4.80;4.00;;;17.20;68.00;;;;;;5109615;27;20451;-86
2022/10/24 05:50:05;;;;;;;3.57;3.27;;;17.20;68.10;;;;;;5113265;27;20549;-87
2022/10/24 05:52:35;;;;;;;5.67;4.13;;;17.20;68.50;;;;;;5110589;27;20568;-86
2022/10/24 05:55:03;;;;;;;6.73;4.10;;;17.30;68.30;;;;;;5095912;27;20500;-87
2022/10/24 05:57:32;;;;;;;3.87;3.23;;;17.40;67.70;;;;;;5069604;27;21029;-88
2022/10/24 05:59:59;;;;;;;11.43;4.13;;;17.40;67.10;;;;;;5083492;27;20444;-88
2022/10/24 06:02:26;;;;;;;4.17;3.00;;;17.40;67.20;;;;;;5105177;27;21460;-88
2022/10/24 06:04:55;;;;;;;3.80;3.10;;;17.30;68.40;;;;;;5079493;27;20477;-88
2022/10/24 06:07:23;;;;;;;21.33;3.80;;;17.20;67.60;;;;;;5095170;27;20450;-88
2022/10/24 06:09:50;;;;;;;3.40;3.10;;;17.20;67.40;;;;;;5076687;27;20527;-88
2022/10/24 06:12:17;;;;;;;4.00;3.20;;;17.30;67.20;;;;;;5108178;27;20486;-88
2022/10/24 06:14:45;;;;;;;9.23;3.07;;;17.30;67.40;;;;;;5108645;27;20471;-87
2022/10/24 06:17:12;;;;;;;3.30;2.90;;;17.40;67.40;;;;;;5110884;27;20566;-87
2022/10/24 06:19:39;;;;;;;3.90;3.10;;;17.50;66.80;;;;;;5085632;28;20448;-89
2022/10/24 06:22:08;;;;;;;12.07;9.40;;;17.30;66.90;;;;;;5081822;27;20451;-88
2022/10/24 06:24:36;;;;;;;35.53;21.10;;;17.20;67.10;;;;;;5107794;27;20485;-87
2022/10/24 06:27:03;;;;;;;15.80;11.43;;;17.20;67.80;;;;;;5109142;27;20477;-88
2022/10/24 06:29:31;;;;;;;20.30;13.47;;;17.30;67.40;;;;;;5089297;27;21002;-87
2022/10/24 06:31:59;;;;;;;43.63;26.70;;;17.40;66.90;;;;;;5109855;27;20617;-86
2022/10/24 06:34:27;;;;;;;10.07;6.23;;;17.50;66.50;;;;;;5096838;27;20464;-88
2022/10/24 06:36:54;;;;;;;17.93;11.77;;;17.40;66.60;;;;;;5078701;27;20864;-88
2022/10/24 06:39:21;;;;;;;17.10;11.00;;;17.40;67.00;;;;;;5110320;27;20461;-87
2022/10/24 06:41:48;;;;;;;15.00;9.80;;;17.40;66.90;;;;;;5100048;27;20439;-88
2022/10/24 06:44:16;;;;;;;8.20;5.17;;;17.30;66.80;;;;;;5087237;28;20578;-88
2022/10/24 06:46:43;;;;;;;18.23;14.70;;;17.20;67.70;;;;;;5088158;27;20882;-88
2022/10/24 06:49:12;;;;;;;11.07;8.50;;;17.30;67.20;;;;;;5108688;27;20442;-88
2022/10/24 06:51:39;;;;;;;70.50;38.77;;;17.30;67.20;;;;;;5109131;27;20557;-88
2022/10/24 06:54:06;;;;;;;17.17;10.63;;;17.20;67.20;;;;;;5107251;27;20481;-87
2022/10/24 06:56:33;;;;;;;14.90;12.23;;;17.10;67.80;;;;;;5105412;27;20571;-87
2022/10/24 06:59:00;;;;;;;4.80;4.40;;;17.30;67.70;;;;;;5088567;27;20591;-88
2022/10/24 07:01:30;;;;;;;7.40;6.47;;;17.20;67.80;;;;;;5104544;27;21020;-87
2022/10/24 07:03:57;;;;;;;6.93;6.23;;;17.30;67.80;;;;;;5106596;27;20550;-88
2022/10/24 07:06:27;;;;;;;8.97;6.93;;;17.40;67.60;;;;;;5088886;27;20457;-85
2022/10/24 07:08:57;;;;;;;8.73;6.57;;;17.60;67.40;;;;;;5104823;27;20447;-87
2022/10/24 07:11:25;;;;;;;12.37;8.23;;;17.70;67.00;;;;;;5105883;27;20496;-87
2022/10/24 07:13:52;;;;;;;14.57;7.67;;;17.60;67.00;;;;;;5089162;28;20472;-86
2022/10/24 07:16:19;;;;;;;10.27;7.00;;;17.40;67.50;;;;;;5088992;27;20457;-89
2022/10/24 07:18:47;;;;;;;9.73;6.63;;;17.60;67.50;;;;;;5106224;27;20527;-88
2022/10/24 07:21:17;;;;;;;9.13;4.90;;;17.70;67.00;;;;;;5107027;27;20440;-87
2022/10/24 07:23:46;;;;;;;8.50;6.50;;;17.70;66.60;;;;;;5106433;27;20461;-88
2022/10/24 07:26:14;;;;;;;6.87;3.90;;;17.70;66.80;;;;;;5103569;27;20459;-88
2022/10/24 07:28:43;;;;;;;5.13;2.90;;;17.50;67.20;;;;;;5091384;28;20478;-89
2022/10/24 07:31:12;;;;;;;3.83;3.13;;;17.40;68.10;;;;;;5081292;28;20454;-89
2022/10/24 07:33:39;;;;;;;5.33;3.43;;;17.50;67.90;;;;;;5090324;28;20442;-88
2022/10/24 07:36:08;;;;;;;5.33;3.50;;;17.60;67.90;;;;;;5089676;27;20431;-89
2022/10/24 07:38:38;;;;;;;4.40;3.50;;;17.80;67.60;;;;;;5068021;28;21116;-88
2022/10/24 07:41:10;;;;;;;9.73;5.40;;;17.80;67.40;;;;;;5088555;28;20549;-87
2022/10/24 07:43:37;;;;;;;13.80;12.40;;;17.70;67.70;;;;;;5089269;28;20471;-87
2022/10/24 07:46:07;;;;;;;9.90;6.70;;;17.30;70.40;;;;;;5107441;28;20509;-87
2022/10/24 07:48:41;;;;;;;16.37;13.90;;;17.30;70.40;;;;;;5089500;28;20533;-87
2022/10/24 07:51:10;;;;;;;21.37;12.80;;;17.30;71.50;;;;;;5095525;28;20544;-86
2022/10/24 07:53:37;;;;;;;9.50;7.40;;;17.40;72.20;;;;;;5105191;27;20490;-89
2022/10/24 07:56:09;;;;;;;12.23;7.13;;;17.60;71.40;;;;;;5088743;28;20987;-87
2022/10/24 07:58:40;;;;;;;18.60;13.70;;;17.90;70.60;;;;;;5087442;28;20466;-89
2022/10/24 08:01:10;;;;;;;16.93;13.60;;;18.10;69.60;;;;;;5093505;28;20506;-87
2022/10/24 08:03:37;;;;;;;11.70;7.57;;;18.20;69.30;;;;;;5108953;28;20610;-90
2022/10/24 08:06:06;;;;;;;11.07;7.10;;;18.20;68.90;;;;;;5075581;28;20933;-89
2022/10/24 08:08:33;;;;;;;9.67;7.30;;;18.10;68.70;;;;;;5092882;28;20456;-88
2022/10/24 08:11:07;;;;;;;12.23;6.93;;;18.10;69.10;;;;;;5090755;27;20451;-86
2022/10/24 08:13:35;;;;;;;21.07;12.90;;;18.20;69.00;;;;;;5108421;28;20982;-87
2022/10/24 08:16:07;;;;;;;9.20;6.63;;;17.90;70.00;;;;;;5059905;28;20993;-87
2022/10/24 08:18:35;;;;;;;7.50;6.57;;;18.10;70.10;;;;;;5085590;27;20534;-89
2022/10/24 08:21:07;;;;;;;7.37;5.53;;;18.30;69.70;;;;;;5093905;28;20444;-90
2022/10/24 08:23:37;;;;;;;6.57;4.90;;;18.30;69.50;;;;;;5104302;28;20531;-87
2022/10/24 08:26:05;;;;;;;6.30;5.70;;;18.40;69.30;;;;;;5108236;27;20463;-87
2022/10/24 08:28:32;;;;;;;8.60;6.80;;;18.50;68.60;;;;;;5082537;27;20843;-88
2022/10/24 08:31:03;;;;;;;10.43;9.47;;;18.60;68.40;;;;;;5109754;27;20553;-90
2022/10/24 08:33:30;;;;;;;7.93;7.20;;;18.60;67.90;;;;;;5098709;27;20480;-89
2022/10/24 08:36:00;;;;;;;10.20;8.60;;;18.50;68.30;;;;;;5111399;27;20500;-88
2022/10/24 08:38:28;;;;;;;10.57;8.10;;;18.40;68.50;;;;;;5111189;27;20482;-89
2022/10/24 08:40:56;;;;;;;13.47;7.90;;;18.50;68.50;;;;;;5110043;27;20960;-86
2022/10/24 08:43:23;;;;;;;9.13;6.97;;;18.50;68.90;;;;;;5092392;27;20450;-89
2022/10/24 08:46:03;;;;;;;8.33;7.47;;;18.50;68.80;;;;;;5108361;27;20592;-86
2022/10/24 08:48:37;;;;;;;7.70;7.00;;;18.50;68.90;;;;;;5103406;27;20449;-88
2022/10/24 08:51:26;;;;;;;9.70;8.80;;;18.70;68.60;;;;;;5110248;27;20501;-88
2022/10/24 08:53:57;;;;;;;10.93;9.70;;;18.70;68.60;;;;;;5074282;27;20541;-87
2022/10/24 08:56:27;;;;;;;11.30;8.10;;;18.80;68.50;;;;;;5109005;27;20443;-86
2022/10/24 08:58:58;;;;;;;11.70;10.50;;;18.90;68.30;;;;;;5109665;27;20441;-88
2022/10/24 09:01:32;;;;;;;9.63;8.73;;;18.90;68.00;;;;;;5112653;27;20446;-88
2022/10/24 09:04:06;;;;;;;9.37;8.53;;;19.00;67.80;;;;;;5092414;27;20446;-89
2022/10/24 09:06:40;;;;;;;14.60;11.70;;;19.00;69.00;;;;;;5088937;27;20466;-88
2022/10/24 09:09:22;;;;;;;13.40;10.70;;;19.00;68.30;;;;;;5106846;27;20445;-87
2022/10/24 09:11:59;;;;;;;7.57;5.50;;;19.00;67.80;;;;;;5109493;27;20446;-88
2022/10/24 09:14:29;;;;;;;16.13;6.87;;;19.00;67.40;;;;;;5101463;27;20842;-89
2022/10/24 09:17:00;;;;;;;9.30;6.60;;;18.90;67.60;;;;;;5109642;27;21005;-89
2022/10/24 09:19:31;;;;;;;7.90;6.40;;;19.00;67.50;;;;;;5058751;28;20572;-89
2022/10/24 09:21:59;;;;;;;8.43;7.60;;;19.00;67.50;;;;;;5107075;27;20450;-87
2022/10/24 09:24:42;;;;;;;8.70;6.27;;;19.10;67.50;;;;;;5105364;27;20489;-87
2022/10/24 09:27:15;;;;;;;7.90;6.37;;;18.90;67.50;;;;;;5082412;27;20454;-88
2022/10/24 09:29:43;;;;;;;8.07;6.27;;;18.70;69.10;;;;;;5105643;27;20851;-88
2022/10/24 09:32:16;;;;;;;8.63;5.30;;;18.60;70.80;;;;;;5108135;27;20869;-89
2022/10/24 09:34:45;;;;;;;7.60;5.23;;;18.60;71.80;;;;;;5105699;27;20483;-87
2022/10/24 09:37:40;;;;;;;9.33;5.23;;;18.60;72.00;;;;;;5110084;27;20453;-88
2022/10/24 09:40:17;;;;;;;7.73;6.30;;;18.90;71.20;;;;;;5067283;27;20447;-91
2022/10/24 09:42:52;;;;;;;8.93;5.47;;;19.10;70.50;;;;;;5107651;27;20530;-89
2022/10/24 09:45:29;;;;;;;7.03;5.40;;;19.20;70.40;;;;;;5107540;27;20469;-88
2022/10/24 09:47:57;;;;;;;12.30;7.10;;;19.30;70.30;;;;;;5108670;27;20533;-90
2022/10/24 09:50:27;;;;;;;7.37;5.70;;;19.40;70.00;;;;;;5108001;27;20462;-88
2022/10/24 09:52:58;;;;;;;7.97;7.17;;;19.40;69.90;;;;;;5105988;27;20461;-89
2022/10/24 09:55:30;;;;;;;12.60;7.10;;;19.30;70.00;;;;;;5106328;27;20467;-89
2022/10/24 09:58:02;;;;;;;5.43;4.10;;;19.20;70.60;;;;;;5106719;27;20532;-88
2022/10/24 10:00:33;;;;;;;4.47;3.77;;;19.20;71.20;;;;;;5108531;27;20527;-88
2022/10/24 10:03:04;;;;;;;7.80;3.80;;;19.20;70.60;;;;;;5108194;27;20443;-88
2022/10/24 10:05:48;;;;;;;5.23;2.30;;;19.30;70.20;;;;;;5106955;27;20573;-89
2022/10/24 10:08:20;;;;;;;7.47;2.50;;;19.40;70.30;;;;;;5111707;27;20434;-88
2022/10/24 10:11:00;;;;;;;7.27;2.40;;;19.40;70.10;;;;;;5112456;27;21221;-89
2022/10/24 10:13:28;;;;;;;8.20;2.87;;;19.70;69.50;;;;;;5109414;27;20463;-88
2022/10/24 10:15:58;;;;;;;4.60;3.77;;;19.90;69.10;;;;;;5110228;27;20823;-88
2022/10/24 10:18:44;;;;;;;5.33;2.97;;;20.00;68.70;;;;;;5112587;27;20454;-89
2022/10/24 10:21:15;;;;;;;5.00;3.30;;;19.90;68.80;;;;;;5110265;27;20442;-89
2022/10/24 10:23:44;;;;;;;3.57;2.40;;;20.00;68.50;;;;;;5113150;27;20450;-88
2022/10/24 10:26:21;;;;;;;4.00;2.20;;;19.90;68.80;;;;;;5108909;27;20548;-88
2022/10/24 10:28:55;;;;;;;5.27;2.70;;;19.80;69.20;;;;;;5111092;27;20537;-89
2022/10/24 10:31:26;;;;;;;4.63;2.30;;;19.90;69.30;;;;;;5109990;27;20445;-86
2022/10/24 10:34:07;;;;;;;8.27;2.60;;;19.80;68.90;;;;;;5110382;27;20884;-87
2022/10/24 10:36:47;;;;;;;5.60;3.33;;;19.80;69.20;;;;;;5111883;27;20447;-88
2022/10/24 10:39:32;;;;;;;3.73;2.37;;;19.90;69.40;;;;;;5110100;27;20543;-88
2022/10/24 10:42:08;;;;;;;4.23;1.93;;;20.10;68.40;;;;;;5109678;27;20450;-89
2022/10/24 10:44:45;;;;;;;6.03;2.10;;;19.90;67.80;;;;;;5103640;27;20574;-88
2022/10/24 10:47:20;;;;;;;8.50;1.93;;;20.10;68.10;;;;;;5111809;27;21084;-89
2022/10/24 10:49:53;;;;;;;5.70;3.03;;;20.20;66.60;;;;;;5107437;27;20453;-89
2022/10/24 10:52:25;;;;;;;7.93;3.20;;;20.20;67.40;;;;;;5110177;27;20464;-90
2022/10/24 10:55:09;;;;;;;6.53;2.50;;;20.50;67.20;;;;;;5110175;27;21222;-89
2022/10/24 10:57:44;;;;;;;5.10;2.30;;;20.60;66.80;;;;;;5108915;27;20478;-89
2022/10/24 11:00:14;;;;;;;4.00;2.53;;;20.80;66.20;;;;;;5109159;27;20499;-89
2022/10/24 11:02:56;;;;;;;5.00;2.00;;;20.90;65.70;;;;;;5109807;27;20442;-88
2022/10/24 11:05:45;;;;;;;6.67;2.03;;;20.80;64.30;;;;;;5109709;27;20478;-88
2022/10/24 11:08:27;;;;;;;10.77;2.77;;;20.70;66.10;;;;;;5106386;27;20431;-89
2022/10/24 11:10:57;;;;;;;9.83;2.40;;;20.80;66.10;;;;;;5111445;27;20443;-88
2022/10/24 11:13:32;;;;;;;3.50;2.33;;;20.70;65.80;;;;;;5110370;27;20826;-87
2022/10/24 11:16:02;;;;;;;10.53;2.63;;;20.80;67.00;;;;;;5106249;27;20463;-91
2022/10/24 11:18:33;;;;;;;5.30;1.87;;;20.80;66.00;;;;;;5104579;27;20445;-88
2022/10/24 11:21:05;;;;;;;5.03;2.30;;;21.00;65.90;;;;;;5107752;27;20447;-89
2022/10/24 11:23:37;;;;;;;5.77;2.57;;;20.90;65.10;;;;;;5108760;27;20478;-90
2022/10/24 11:26:08;;;;;;;8.17;2.40;;;20.80;65.00;;;;;;5106612;27;20473;-88
2022/10/24 11:28:42;;;;;;;4.77;2.33;;;20.60;66.30;;;;;;5107392;27;20536;-88
2022/10/24 11:31:14;;;;;;;4.07;2.40;;;20.40;66.30;;;;;;5097688;27;20503;-87
2022/10/24 11:33:44;;;;;;;4.23;2.30;;;20.50;67.00;;;;;;5105237;27;20468;-88
2022/10/24 11:36:18;;;;;;;3.40;2.33;;;20.60;66.80;;;;;;5106623;27;20591;-87
2022/10/24 11:38:52;;;;;;;7.27;2.23;;;20.50;66.60;;;;;;5107177;27;20439;-88
2022/10/24 11:41:39;;;;;;;6.63;2.47;;;20.50;67.10;;;;;;5105651;28;20446;-88
2022/10/24 11:44:18;;;;;;;4.50;2.17;;;20.40;67.60;;;;;;5105606;28;20482;-86
2022/10/24 11:46:51;;;;;;;4.77;2.40;;;20.10;68.60;;;;;;5107205;28;20836;-88
2022/10/24 11:49:24;;;;;;;4.20;1.90;;;20.00;69.30;;;;;;5112978;28;20453;-88
2022/10/24 11:51:56;;;;;;;3.37;1.97;;;20.20;68.80;;;;;;5107539;28;20516;-88
2022/10/24 11:54:29;;;;;;;5.67;2.77;;;20.30;68.00;;;;;;5104068;28;20485;-88
2022/10/24 11:57:00;;;;;;;13.23;2.73;;;20.40;67.90;;;;;;5104603;28;20446;-87
2022/10/24 11:59:28;;;;;;;4.30;2.10;;;20.50;67.70;;;;;;5102131;28;21255;-87
2022/10/24 12:02:26;;;;;;;3.80;2.20;;;20.40;67.40;;;;;;5109352;27;20531;-86
2022/10/24 12:05:17;;;;;;;4.03;2.33;;;20.40;68.40;;;;;;5107110;27;20457;-88
2022/10/24 12:08:15;;;;;;;4.90;2.40;;;20.50;68.60;;;;;;5108178;27;20447;-87
2022/10/24 12:11:24;;;;;;;5.23;2.47;;;20.60;67.70;;;;;;5107204;27;20881;-87
2022/10/24 12:14:21;;;;;;;2.30;1.80;;;20.80;66.30;;;;;;5043337;28;20504;-88
2022/10/24 12:17:03;;;;;;;3.37;2.13;;;20.70;66.90;;;;;;5105444;27;20457;-87
2022/10/24 12:19:31;;;;;;;8.97;2.30;;;20.50;67.80;;;;;;5107812;27;20452;-88
2022/10/24 12:22:01;;;;;;;7.40;2.23;;;20.60;67.50;;;;;;5107068;27;20453;-88
2022/10/24 12:24:31;;;;;;;3.30;2.10;;;20.70;67.00;;;;;;5109473;27;20485;-87
2022/10/24 12:27:02;;;;;;;2.80;2.23;;;20.90;66.40;;;;;;5110091;27;20447;-89
2022/10/24 12:29:32;;;;;;;7.10;2.10;;;21.20;66.60;;;;;;5107984;27;20533;-88
2022/10/24 12:32:20;;;;;;;4.13;2.40;;;21.40;64.50;;;;;;5109426;27;20446;-88
2022/10/24 12:34:57;;;;;;;3.83;2.03;;;21.10;66.00;;;;;;5106244;27;20478;-87
2022/10/24 12:37:42;;;;;;;5.83;2.50;;;21.00;65.20;;;;;;5108713;27;20485;-85
2022/10/24 12:40:46;;;;;;;10.53;2.23;;;20.80;66.90;;;;;;5111289;27;20448;-88
2022/10/24 12:43:31;;;;;;;8.30;2.90;;;20.80;67.10;;;;;;5109254;27;20453;-88
2022/10/24 12:46:01;;;;;;;30.33;12.10;;;21.00;66.20;;;;;;5109719;27;20496;-87
2022/10/24 12:48:34;;;;;;;4.03;2.40;;;21.40;65.80;;;;;;5109043;27;20481;-87
2022/10/24 12:51:32;;;;;;;4.53;1.90;;;21.50;64.50;;;;;;5108615;27;20461;-87
2022/10/24 12:54:02;;;;;;;3.57;2.20;;;21.40;63.20;;;;;;5044181;28;21125;-89
2022/10/24 12:56:30;;;;;;;4.30;1.90;;;21.30;64.60;;;;;;5094777;27;20463;-87
2022/10/24 12:59:15;;;;;;;4.00;2.00;;;21.30;64.50;;;;;;5115115;27;21275;-88
2022/10/24 13:01:43;;;;;;;4.20;2.30;;;20.90;65.30;;;;;;5109673;27;20438;-88
2022/10/24 13:04:47;;;;;;;7.17;3.10;;;21.00;65.30;;;;;;5108246;27;20497;-88